createdAt,value
2022-10-20T00:00:31.041Z,99.99
2022-10-20T00:01:30.936Z,99.99
2022-10-20T00:02:31.029Z,99.99
2022-10-20T00:03:30.881Z,99.99
2022-10-20T00:04:30.887Z,99.99
2022-10-20T00:05:30.820Z,99.99
2022-10-20T00:06:30.920Z,99.99
2022-10-20T00:07:30.921Z,99.99
2022-10-20T00:08:30.829Z,99.99
2022-10-20T00:09:30.885Z,99.99
2022-10-20T00:10:30.937Z,99.99
2022-10-20T00:11:30.704Z,99.99
2022-10-20T00:12:30.719Z,99.99
2022-10-20T00:13:30.688Z,99.99
2022-10-20T00:14:30.798Z,99.99
2022-10-20T00:15:30.670Z,99.99
2022-10-20T00:16:30.849Z,99.99
2022-10-20T00:17:30.711Z,99.99
2022-10-20T00:18:30.734Z,99.99
2022-10-20T00:19:30.622Z,99.99
2022-10-20T00:20:30.801Z,99.99
2022-10-20T00:21:30.579Z,99.99
2022-10-20T00:22:30.604Z,99.99
2022-10-20T00:23:30.589Z,99.99
2022-10-20T00:24:30.577Z,99.99
2022-10-20T00:25:30.600Z,99.99
2022-10-20T00:26:30.514Z,99.99
2022-10-20T00:27:30.619Z,99.99
2022-10-20T00:28:30.536Z,99.99
2022-10-20T00:29:30.512Z,99.99
2022-10-20T00:30:30.644Z,99.99
2022-10-20T00:31:30.547Z,99.99
2022-10-20T00:32:30.469Z,99.99
2022-10-20T00:33:30.512Z,99.99
2022-10-20T00:34:30.419Z,99.99
2022-10-20T00:35:30.452Z,99.99
2022-10-20T00:36:30.453Z,99.99
2022-10-20T00:37:30.447Z,99.99
2022-10-20T00:38:30.470Z,99.99
2022-10-20T00:39:30.426Z,99.99
2022-10-20T00:40:30.397Z,99.99
2022-10-20T00:41:30.560Z,99.99
2022-10-20T00:42:30.471Z,99.99
2022-10-20T00:43:30.379Z,99.99
2022-10-20T00:44:30.365Z,99.99
2022-10-20T00:45:30.409Z,99.99
2022-10-20T00:46:30.331Z,99.99
2022-10-20T00:47:30.307Z,99.99
2022-10-20T00:48:30.351Z,99.99
2022-10-20T00:49:30.273Z,99.99
2022-10-20T00:50:30.310Z,99.99
2022-10-20T00:51:30.270Z,99.99
2022-10-20T00:52:30.271Z,99.99
2022-10-20T00:53:30.231Z,99.99
2022-10-20T00:54:30.319Z,99.99
2022-10-20T00:55:30.509Z,99.99
2022-10-20T00:56:30.362Z,99.99
2022-10-20T00:57:30.180Z,99.99
2022-10-20T00:58:30.458Z,99.99
2022-10-20T02:49:45.429Z,99.99
2022-10-20T02:50:43.834Z,99.99
2022-10-20T02:51:43.788Z,99.99
2022-10-20T02:52:44.035Z,99.99
2022-10-20T02:53:43.832Z,99.99
2022-10-20T02:54:43.828Z,99.99
2022-10-20T02:55:43.774Z,99.99
2022-10-20T02:56:43.661Z,99.99
2022-10-20T02:57:43.638Z,99.99
2022-10-20T02:58:43.653Z,99.99
2022-10-20T02:59:43.591Z,99.99
2022-10-20T03:00:43.620Z,99.99
2022-10-20T03:01:43.780Z,99.99
2022-10-20T03:02:43.576Z,99.99
2022-10-20T03:03:43.573Z,99.99
2022-10-20T03:04:43.542Z,99.99
2022-10-20T03:05:43.568Z,99.99
2022-10-20T03:06:43.500Z,99.99
2022-10-20T03:07:43.594Z,99.99
2022-10-20T03:08:43.593Z,99.99
2022-10-20T03:09:43.588Z,99.99
2022-10-20T03:10:43.532Z,99.99
2022-10-20T03:11:43.511Z,99.99
2022-10-20T03:12:43.455Z,99.99
2022-10-20T03:13:43.447Z,99.99
2022-10-20T03:14:43.472Z,99.99
2022-10-20T03:15:43.384Z,99.99
2022-10-20T03:16:43.576Z,99.99
2022-10-20T03:17:43.404Z,99.99
2022-10-20T03:18:43.485Z,99.99
2022-10-20T03:19:43.401Z,99.99
2022-10-20T03:20:43.358Z,99.99
2022-10-20T03:21:43.352Z,99.99
2022-10-20T03:22:43.362Z,99.99
2022-10-20T03:23:43.350Z,99.99
2022-10-20T03:24:43.370Z,99.99
2022-10-20T03:25:43.363Z,99.99
2022-10-20T03:26:43.244Z,99.99
2022-10-20T03:27:43.247Z,99.99
2022-10-20T03:28:43.314Z,99.99
2022-10-20T03:29:43.339Z,99.99
2022-10-20T03:30:43.263Z,99.99
2022-10-20T03:31:43.261Z,99.99
2022-10-20T03:32:43.190Z,99.99
2022-10-20T03:33:43.238Z,99.99
2022-10-20T03:34:43.224Z,99.99
2022-10-20T03:35:43.268Z,99.99
2022-10-20T03:36:43.251Z,99.99
2022-10-20T03:37:43.110Z,99.99
2022-10-20T03:38:43.459Z,99.99
2022-10-20T03:39:43.110Z,99.99
2022-10-20T03:40:43.136Z,99.99
2022-10-20T03:41:43.230Z,99.99
2022-10-20T03:42:43.085Z,99.99
2022-10-20T03:43:43.127Z,99.99
2022-10-20T03:44:43.079Z,99.99
2022-10-20T03:45:43.083Z,99.99
2022-10-20T03:46:43.146Z,99.99
2022-10-20T03:47:43.098Z,99.99
2022-10-20T03:48:42.967Z,99.99
2022-10-20T03:49:43.083Z,99.99
2022-10-20T03:50:43.065Z,99.99
2022-10-20T03:51:42.934Z,99.99
2022-10-20T03:52:43.086Z,99.99
2022-10-20T03:53:42.954Z,99.99
2022-10-20T03:54:42.933Z,99.99
2022-10-20T03:55:42.954Z,99.99
2022-10-20T03:56:42.963Z,99.99
2022-10-20T03:57:42.984Z,99.99
2022-10-20T03:58:42.953Z,99.99
2022-10-20T03:59:42.980Z,99.99
2022-10-20T04:00:42.958Z,99.99
2022-10-20T04:01:42.916Z,99.99
2022-10-20T04:02:42.849Z,99.99
2022-10-20T04:03:42.777Z,99.99
2022-10-20T04:04:42.918Z,99.99
2022-10-20T04:05:42.835Z,99.99
2022-10-20T04:06:42.804Z,99.99
2022-10-20T04:07:42.830Z,99.99
2022-10-20T04:08:42.847Z,99.99
2022-10-20T04:09:42.742Z,99.99
2022-10-20T04:10:42.734Z,99.99
2022-10-20T04:11:42.888Z,99.99
2022-10-20T04:12:42.756Z,99.99
2022-10-20T04:13:42.732Z,99.99
2022-10-20T04:14:42.753Z,99.99
2022-10-20T04:15:42.713Z,99.99
2022-10-20T04:16:42.648Z,99.99
2022-10-20T04:17:42.679Z,99.99
2022-10-20T04:18:42.654Z,99.99
2022-10-20T04:19:42.610Z,99.99
2022-10-20T04:20:44.552Z,99.99
2022-10-20T04:21:42.574Z,99.99
2022-10-20T04:22:42.652Z,99.99
2022-10-20T04:23:42.674Z,99.99
2022-10-20T04:24:42.535Z,99.99
2022-10-20T04:25:42.618Z,99.99
2022-10-20T04:26:42.567Z,99.99
2022-10-20T04:27:42.542Z,99.99
2022-10-20T04:28:42.519Z,99.99
2022-10-20T04:29:42.624Z,99.99
2022-10-20T04:30:42.465Z,99.99
2022-10-20T04:31:45.375Z,99.99
2022-10-20T04:32:43.497Z,99.99
2022-10-20T04:33:42.507Z,99.99
2022-10-20T04:34:42.437Z,99.99
2022-10-20T04:35:42.438Z,99.99
2022-10-20T04:36:42.418Z,99.99
2022-10-20T04:37:42.475Z,99.99
2022-10-20T04:38:42.382Z,99.99
2022-10-20T05:04:20.937Z,99.99
2022-10-20T05:04:59.800Z,99.99
2022-10-20T05:05:59.786Z,99.99
2022-10-20T05:06:59.850Z,99.99
2022-10-20T05:07:59.792Z,99.99
2022-10-20T05:08:59.954Z,99.99
2022-10-20T05:09:59.811Z,99.99
2022-10-20T05:10:59.706Z,99.99
2022-10-20T05:11:59.839Z,99.99
2022-10-20T05:12:59.734Z,99.99
2022-10-20T05:13:59.681Z,99.99
2022-10-20T05:14:59.734Z,99.99
2022-10-20T05:15:59.683Z,99.99
2022-10-20T05:16:59.660Z,99.99
2022-10-20T05:17:59.675Z,99.99
2022-10-20T05:18:59.634Z,99.99
2022-10-20T05:19:59.679Z,99.99
2022-10-20T05:21:14.775Z,99.99
2022-10-20T05:22:00.611Z,99.99
2022-10-20T05:22:59.597Z,99.99
2022-10-20T05:23:59.623Z,99.99
2022-10-20T05:25:12.804Z,99.99
2022-10-20T05:26:00.584Z,99.99
2022-10-20T05:26:59.594Z,99.99
2022-10-20T05:27:59.608Z,99.99
2022-10-20T05:28:59.551Z,99.99
2022-10-20T05:29:59.484Z,99.99
2022-10-20T05:31:01.473Z,99.99
2022-10-20T05:31:59.481Z,99.99
2022-10-20T05:32:59.432Z,99.99
2022-10-20T05:33:59.492Z,99.99
2022-10-20T05:34:59.429Z,99.99
2022-10-20T05:35:59.461Z,99.99
2022-10-20T05:36:59.376Z,99.99
2022-10-20T05:37:59.409Z,99.99
2022-10-20T05:38:59.390Z,99.99
2022-10-20T05:39:59.371Z,99.99
2022-10-20T05:40:59.358Z,99.99
2022-10-20T05:41:59.341Z,99.99
2022-10-20T05:42:59.340Z,99.99
2022-10-20T05:43:59.345Z,99.99
2022-10-20T05:44:59.332Z,99.99
2022-10-20T05:45:59.293Z,99.99
2022-10-20T05:46:59.303Z,99.99
2022-10-20T05:47:59.324Z,99.99
2022-10-20T05:49:03.257Z,99.99
2022-10-20T05:49:59.280Z,99.99
2022-10-20T05:50:59.264Z,99.99
2022-10-20T05:51:59.231Z,99.99
2022-10-20T05:52:59.224Z,99.99
2022-10-20T05:53:59.245Z,99.99
2022-10-20T05:54:59.180Z,99.99
2022-10-20T05:55:59.146Z,99.99
2022-10-20T05:56:59.171Z,99.99
2022-10-20T05:57:59.188Z,99.99
2022-10-20T05:58:59.237Z,99.99
2022-10-20T05:59:59.107Z,99.99
2022-10-20T06:00:59.142Z,99.99
2022-10-20T06:01:59.140Z,99.99
2022-10-20T06:02:59.106Z,99.99
2022-10-20T06:03:59.061Z,99.99
2022-10-20T06:04:59.180Z,99.99
2022-10-20T06:05:59.037Z,99.99
2022-10-20T06:06:59.025Z,99.99
2022-10-20T06:07:59.054Z,99.99
2022-10-20T06:08:59.216Z,99.99
2022-10-20T06:09:58.983Z,99.99
2022-10-20T06:10:59.002Z,99.99
2022-10-20T06:11:59.007Z,99.99
2022-10-20T06:12:59.000Z,99.99
2022-10-20T06:13:59.071Z,99.99
2022-10-20T06:14:59.000Z,99.99
2022-10-20T06:15:58.961Z,99.99
2022-10-20T06:16:58.952Z,99.99
2022-10-20T06:17:58.910Z,99.99
2022-10-20T06:18:58.928Z,99.99
2022-10-20T06:19:58.993Z,99.99
2022-10-20T06:20:58.880Z,99.99
2022-10-20T06:22:03.799Z,99.99
2022-10-20T06:22:59.854Z,99.99
2022-10-20T06:23:58.868Z,99.99
2022-10-20T06:24:58.860Z,99.99
2022-10-20T06:25:58.884Z,99.99
2022-10-20T06:26:58.774Z,99.99
2022-10-20T06:27:58.782Z,99.99
2022-10-20T06:29:03.921Z,99.99
2022-10-20T06:29:59.821Z,99.99
2022-10-20T06:30:58.798Z,99.99
2022-10-20T06:31:58.752Z,99.99
2022-10-20T06:32:58.731Z,99.99
2022-10-20T06:33:58.707Z,99.99
2022-10-20T06:34:58.680Z,99.99
2022-10-20T06:35:58.679Z,99.99
2022-10-20T06:36:58.698Z,99.99
2022-10-20T06:37:58.696Z,99.99
2022-10-20T06:38:58.729Z,99.99
2022-10-20T06:39:58.642Z,99.99
2022-10-20T06:40:58.640Z,99.99
2022-10-20T06:41:58.728Z,99.99
2022-10-20T06:42:58.628Z,99.99
2022-10-20T06:43:58.606Z,99.99
2022-10-20T06:44:58.572Z,99.99
2022-10-20T06:45:58.623Z,99.99
2022-10-20T06:46:58.643Z,99.99
2022-10-20T06:47:58.605Z,99.99
2022-10-20T06:48:58.972Z,99.99
2022-10-20T06:49:58.600Z,99.99
2022-10-20T06:50:58.594Z,99.99
2022-10-20T06:51:58.639Z,99.99
2022-10-20T06:52:58.546Z,99.99
2022-10-20T06:53:58.479Z,99.99
2022-10-20T06:54:58.471Z,99.99
2022-10-20T06:55:58.504Z,99.99
2022-10-20T06:56:58.452Z,99.99
2022-10-20T06:57:58.398Z,99.99
2022-10-20T06:58:58.375Z,99.99
2022-10-20T08:21:29.708Z,93.77
2022-10-20T08:22:29.644Z,92.30
2022-10-20T08:23:29.631Z,90.64
2022-10-20T08:24:29.646Z,89.48
2022-10-20T08:25:29.613Z,88.73
2022-10-20T08:26:29.587Z,88.32
2022-10-20T08:27:29.610Z,88.12
2022-10-20T08:28:29.560Z,87.51
2022-10-20T08:29:29.553Z,88.58
2022-10-20T08:30:29.534Z,88.58
2022-10-20T08:31:29.513Z,88.28
2022-10-20T08:32:29.528Z,88.68
2022-10-20T08:33:29.489Z,88.68
2022-10-20T08:34:29.478Z,88.28
2022-10-20T08:35:29.457Z,87.87
2022-10-20T08:36:29.449Z,87.46
2022-10-20T08:37:29.449Z,86.25
2022-10-20T08:38:29.412Z,86.00
2022-10-20T08:39:29.414Z,85.30
2022-10-20T08:40:29.401Z,85.19
2022-10-20T08:41:38.743Z,84.89
2022-10-20T08:42:30.377Z,84.58
2022-10-20T08:43:29.356Z,85.19
2022-10-20T08:44:29.385Z,85.46
2022-10-20T08:45:29.321Z,85.66
2022-10-20T08:46:29.327Z,84.75
2022-10-20T08:47:32.437Z,85.46
2022-10-20T08:48:29.283Z,84.95
2022-10-20T08:49:29.286Z,84.75
2022-10-20T08:50:29.270Z,85.36
2022-10-20T08:51:29.249Z,85.25
2022-10-20T08:52:29.229Z,85.66
2022-10-20T08:53:29.220Z,85.46
2022-10-20T08:54:29.206Z,85.05
2022-10-20T08:55:29.229Z,85.25
2022-10-20T08:56:29.185Z,85.31
2022-10-20T08:57:29.171Z,84.10
2022-10-20T08:58:29.148Z,84.70
2022-10-20T08:59:29.144Z,83.80
2022-10-20T09:00:29.121Z,83.59
2022-10-20T09:01:29.200Z,83.39
2022-10-20T09:02:29.091Z,84.10
2022-10-20T09:03:29.087Z,83.55
2022-10-20T09:04:29.129Z,83.45
2022-10-20T09:05:29.053Z,82.84
2022-10-20T09:06:29.041Z,82.54
2022-10-20T09:07:29.064Z,83.04
2022-10-20T09:08:29.087Z,83.65
2022-10-20T09:09:28.998Z,82.54
2022-10-20T09:10:28.993Z,82.64
2022-10-20T09:11:28.975Z,83.25
2022-10-20T09:12:31.128Z,84.27
2022-10-20T09:13:28.966Z,82.34
2022-10-20T09:14:28.935Z,82.34
2022-10-20T09:15:28.932Z,82.98
2022-10-20T09:16:40.751Z,83.09
2022-10-20T09:17:29.897Z,83.29
2022-10-20T09:18:28.898Z,82.68
2022-10-20T09:19:28.871Z,82.64
2022-10-20T09:20:28.852Z,82.75
2022-10-20T09:21:28.857Z,83.04
2022-10-20T09:22:33.354Z,83.76
2022-10-20T09:23:40.481Z,83.55
2022-10-20T09:24:29.971Z,82.54
2022-10-20T09:25:28.790Z,82.90
2022-10-20T09:26:39.080Z,82.75
2022-10-20T09:27:29.774Z,82.24
2022-10-20T09:28:34.778Z,83.01
2022-10-20T09:29:29.731Z,83.01
2022-10-20T09:30:28.715Z,83.04
2022-10-20T09:31:28.711Z,82.84
2022-10-20T09:32:45.481Z,83.15
2022-10-20T09:33:29.719Z,83.04
2022-10-20T09:34:28.698Z,82.84
2022-10-20T09:35:28.653Z,83.25
2022-10-20T09:36:28.637Z,83.35
2022-10-20T09:37:28.634Z,83.65
2022-10-20T09:38:28.627Z,83.25
2022-10-20T09:39:28.593Z,83.35
2022-10-20T09:40:28.630Z,83.04
2022-10-20T09:41:28.573Z,83.41
2022-10-20T09:42:28.563Z,83.41
2022-10-20T09:43:28.544Z,82.95
2022-10-20T09:44:28.524Z,83.15
2022-10-20T09:45:28.556Z,83.01
2022-10-20T09:46:28.498Z,83.45
2022-10-20T09:47:28.526Z,83.25
2022-10-20T09:48:28.508Z,83.35
2022-10-20T09:49:28.459Z,83.15
2022-10-20T09:50:28.446Z,83.51
2022-10-20T09:51:28.457Z,83.82
2022-10-20T09:52:28.416Z,83.72
2022-10-20T09:53:28.407Z,83.51
2022-10-20T09:54:28.427Z,83.21
2022-10-20T09:55:28.380Z,83.82
2022-10-20T09:56:28.379Z,84.27
2022-10-20T09:57:28.362Z,84.16
2022-10-20T09:58:28.387Z,83.86
2022-10-20T09:59:28.347Z,83.76
2022-10-20T10:00:43.566Z,83.35
2022-10-20T10:01:29.348Z,83.45
2022-10-20T10:02:28.309Z,83.86
2022-10-20T10:03:28.269Z,83.35
2022-10-20T10:04:28.287Z,83.35
2022-10-20T10:05:28.271Z,83.55
2022-10-20T10:06:28.278Z,83.35
2022-10-20T10:07:28.224Z,83.45
2022-10-20T10:08:28.287Z,83.86
2022-10-20T10:09:28.219Z,83.55
2022-10-20T10:10:28.188Z,84.06
2022-10-20T10:11:28.192Z,84.16
2022-10-20T10:12:28.173Z,84.20
2022-10-20T10:13:28.138Z,84.30
2022-10-20T10:14:28.161Z,84.61
2022-10-20T10:15:28.123Z,84.00
2022-10-20T10:16:28.105Z,84.30
2022-10-20T10:17:28.113Z,84.10
2022-10-20T10:18:28.116Z,84.10
2022-10-20T10:19:28.077Z,84.10
2022-10-20T10:20:28.096Z,84.81
2022-10-20T10:21:28.055Z,84.61
2022-10-20T10:22:28.049Z,84.30
2022-10-20T10:23:28.011Z,84.10
2022-10-20T10:24:27.995Z,83.69
2022-10-20T10:25:27.984Z,83.86
2022-10-20T10:26:27.970Z,84.56
2022-10-20T10:27:27.965Z,84.16
2022-10-20T10:28:27.982Z,84.36
2022-10-20T10:29:27.949Z,84.06
2022-10-20T10:30:27.915Z,84.36
2022-10-20T10:31:27.901Z,84.36
2022-10-20T10:32:27.889Z,84.56
2022-10-20T10:33:27.910Z,84.56
2022-10-20T10:34:27.862Z,84.56
2022-10-20T10:35:27.893Z,84.87
2022-10-20T10:36:27.843Z,84.47
2022-10-20T10:37:29.723Z,84.56
2022-10-20T10:38:27.816Z,84.53
2022-10-20T10:39:27.787Z,84.53
2022-10-20T10:40:27.814Z,84.73
2022-10-20T10:41:27.785Z,84.67
2022-10-20T10:42:27.771Z,84.27
2022-10-20T10:43:27.738Z,84.36
2022-10-20T10:44:27.726Z,84.77
2022-10-20T10:45:27.713Z,85.58
2022-10-20T10:46:27.723Z,85.62
2022-10-20T10:47:27.718Z,87.54
2022-10-20T10:48:27.695Z,87.95
2022-10-20T10:49:27.680Z,89.41
2022-10-20T10:50:27.658Z,89.81
2022-10-20T10:51:27.640Z,90.22
2022-10-20T10:52:27.638Z,88.60
2022-10-20T10:53:27.597Z,89.61
2022-10-20T10:54:27.596Z,89.21
2022-10-20T10:55:53.236Z,90.12
2022-10-20T10:56:28.561Z,90.62
2022-10-20T10:57:27.592Z,90.42
2022-10-20T10:58:27.540Z,89.21
2022-10-20T10:59:27.535Z,89.92
2022-10-20T11:00:27.505Z,90.02
2022-10-20T11:01:27.490Z,90.32
2022-10-20T11:02:27.503Z,89.31
2022-10-20T11:03:27.500Z,89.21
2022-10-20T11:04:27.465Z,89.77
2022-10-20T11:05:27.468Z,88.76
2022-10-20T11:06:27.436Z,89.01
2022-10-20T11:07:27.449Z,88.35
2022-10-20T11:08:27.480Z,88.56
2022-10-20T11:09:27.441Z,88.15
2022-10-20T11:10:27.390Z,88.66
2022-10-20T11:11:27.373Z,88.66
2022-10-20T11:12:27.343Z,88.25
2022-10-20T11:13:27.357Z,88.66
2022-10-20T11:14:27.336Z,88.35
2022-10-20T11:15:27.352Z,88.86
2022-10-20T11:16:27.307Z,88.76
2022-10-20T11:17:27.304Z,88.66
2022-10-20T11:18:27.285Z,89.57
2022-10-20T11:19:27.262Z,89.37
2022-10-20T11:20:27.263Z,88.40
2022-10-20T11:21:27.244Z,89.21
2022-10-20T11:22:27.213Z,89.47
2022-10-20T11:23:27.257Z,89.67
2022-10-20T11:24:27.196Z,90.22
2022-10-20T11:25:27.187Z,90.32
2022-10-20T11:26:29.149Z,90.83
2022-10-20T11:27:27.149Z,91.54
2022-10-20T11:28:27.138Z,91.85
2022-10-20T11:29:27.131Z,91.44
2022-10-20T11:30:27.108Z,91.54
2022-10-20T11:31:27.148Z,91.74
2022-10-20T11:32:27.171Z,90.93
2022-10-20T11:33:27.070Z,91.74
2022-10-20T11:34:27.076Z,92.35
2022-10-20T11:35:27.068Z,92.65
2022-10-20T11:36:27.054Z,92.35
2022-10-20T11:37:27.041Z,92.96
2022-10-20T11:38:27.012Z,92.76
2022-10-20T11:39:27.003Z,91.94
2022-10-20T11:40:27.008Z,92.76
2022-10-20T11:41:26.964Z,93.26
2022-10-20T11:42:26.975Z,93.37
2022-10-20T11:43:26.986Z,93.77
2022-10-20T11:44:26.935Z,93.16
2022-10-20T11:45:26.953Z,93.37
2022-10-20T11:46:26.904Z,92.76
2022-10-20T11:47:26.907Z,93.26
2022-10-20T11:48:26.877Z,93.77
2022-10-20T11:49:26.874Z,94.07
2022-10-20T11:50:26.885Z,93.81
2022-10-20T11:51:26.845Z,94.12
2022-10-20T11:52:26.835Z,94.83
2022-10-20T11:53:26.818Z,94.83
2022-10-20T11:54:26.818Z,94.53
2022-10-20T11:55:26.804Z,94.42
2022-10-20T11:56:26.807Z,95.23
2022-10-20T11:57:26.798Z,95.74
2022-10-20T11:58:26.758Z,96.04
2022-10-20T11:59:26.750Z,96.30
2022-10-20T12:00:26.740Z,95.99
2022-10-20T12:01:26.726Z,95.89
2022-10-20T12:02:26.682Z,96.60
2022-10-20T12:03:26.703Z,96.60
2022-10-20T12:04:26.659Z,96.80
2022-10-20T12:05:26.649Z,96.39
2022-10-20T12:06:26.649Z,96.90
2022-10-20T12:07:26.629Z,96.70
2022-10-20T12:08:30.831Z,97.56
2022-10-20T12:09:26.707Z,97.56
2022-10-20T12:10:26.592Z,98.57
2022-10-20T12:11:26.615Z,98.57
2022-10-20T12:12:26.572Z,98.97
2022-10-20T12:13:26.705Z,98.68
2022-10-20T12:14:26.536Z,99.18
2022-10-20T12:15:26.595Z,99.28
2022-10-20T12:16:26.504Z,99.69
2022-10-20T12:17:26.513Z,99.69
2022-10-20T12:18:26.494Z,99.99
2022-10-20T12:19:26.508Z,99.43
2022-10-20T12:20:26.494Z,99.84
2022-10-20T12:21:26.850Z,99.99
2022-10-20T12:22:26.577Z,99.99
2022-10-20T12:23:26.425Z,99.99
2022-10-20T12:24:26.451Z,99.99
2022-10-20T12:25:26.399Z,99.99
2022-10-20T12:26:26.526Z,99.99
2022-10-20T12:27:26.364Z,99.99
2022-10-20T12:28:26.416Z,99.99
2022-10-20T12:29:26.338Z,99.99
2022-10-20T12:30:26.353Z,99.99
2022-10-20T12:31:26.327Z,99.99
2022-10-20T12:32:26.335Z,99.99
2022-10-20T12:33:26.312Z,99.99
2022-10-20T12:34:26.305Z,99.99
2022-10-20T12:35:26.447Z,99.99
2022-10-20T12:36:26.259Z,99.99
2022-10-20T12:37:26.235Z,99.99
2022-10-20T12:38:26.225Z,99.99
2022-10-20T12:39:26.244Z,99.99
2022-10-20T12:40:26.202Z,99.99
2022-10-20T12:41:26.190Z,99.99
2022-10-20T12:42:26.156Z,99.99
2022-10-20T12:43:26.185Z,99.99
2022-10-20T12:44:26.130Z,99.99
2022-10-20T12:45:26.146Z,99.99
2022-10-20T12:46:26.133Z,99.99
2022-10-20T12:47:26.154Z,99.99
2022-10-20T12:48:26.080Z,99.99
2022-10-20T12:49:26.068Z,99.99
2022-10-20T12:50:26.054Z,99.99
2022-10-20T12:51:26.024Z,99.99
2022-10-20T12:52:26.062Z,99.99
2022-10-20T12:53:26.008Z,99.99
2022-10-20T12:54:25.993Z,99.99
2022-10-20T12:55:26.042Z,99.99
2022-10-20T12:56:26.029Z,99.99
2022-10-20T12:57:25.968Z,99.99
2022-10-20T12:58:25.957Z,99.99
2022-10-20T12:59:25.938Z,99.99
2022-10-20T13:00:25.969Z,99.99
2022-10-20T13:09:39.382Z,99.99
2022-10-20T13:10:39.349Z,99.99
2022-10-20T13:11:39.359Z,99.99
2022-10-20T13:12:39.308Z,99.99
2022-10-20T13:13:39.308Z,99.99
2022-10-20T13:14:39.322Z,99.99
2022-10-20T13:15:39.288Z,99.99
2022-10-20T13:16:39.283Z,99.99
2022-10-20T13:17:39.587Z,99.99
2022-10-20T13:18:39.240Z,99.99
2022-10-20T13:19:39.242Z,99.99
2022-10-20T13:20:39.217Z,99.99
2022-10-20T13:21:39.194Z,99.99
2022-10-20T13:22:39.198Z,99.99
2022-10-20T13:23:39.165Z,99.99
2022-10-20T13:24:42.768Z,99.99
2022-10-20T13:25:40.153Z,99.99
2022-10-20T13:26:39.141Z,99.99
2022-10-20T13:27:39.399Z,99.99
2022-10-20T13:28:39.125Z,99.99
2022-10-20T13:29:39.151Z,99.99
2022-10-20T13:30:39.121Z,99.99
2022-10-20T13:31:39.096Z,99.99
2022-10-20T13:32:47.785Z,99.99
2022-10-20T13:34:02.447Z,99.60
2022-10-20T13:34:40.023Z,99.29
2022-10-20T13:35:39.054Z,99.75
2022-10-20T13:36:39.021Z,99.35
2022-10-20T13:37:38.982Z,99.35
2022-10-20T13:38:38.962Z,99.19
2022-10-20T13:39:38.942Z,97.58
2022-10-20T13:40:38.950Z,98.79
2022-10-20T13:41:38.964Z,98.03
2022-10-20T13:42:39.204Z,98.14
2022-10-20T13:43:38.910Z,98.09
2022-10-20T13:44:38.875Z,97.69
2022-10-20T13:45:38.866Z,96.27
2022-10-20T13:46:38.901Z,96.37
2022-10-20T13:47:38.881Z,96.57
2022-10-20T13:48:38.875Z,96.78
2022-10-20T13:49:38.800Z,96.57
2022-10-20T13:50:38.805Z,95.97
2022-10-20T13:51:38.784Z,96.42
2022-10-20T13:52:39.094Z,96.12
2022-10-20T13:53:38.764Z,95.31
2022-10-20T13:54:38.786Z,95.72
2022-10-20T13:55:38.767Z,96.22
2022-10-20T13:56:38.735Z,96.12
2022-10-20T13:57:38.717Z,96.53
2022-10-20T13:58:38.746Z,95.92
2022-10-20T13:59:40.665Z,95.82
2022-10-20T14:00:38.750Z,96.27
2022-10-20T14:01:38.650Z,96.07
2022-10-20T14:02:38.968Z,96.37
2022-10-20T14:03:38.654Z,96.67
2022-10-20T14:04:38.625Z,96.27
2022-10-20T14:05:38.652Z,95.97
2022-10-20T14:06:38.587Z,95.46
2022-10-20T14:07:38.579Z,95.51
2022-10-20T14:08:38.621Z,95.47
2022-10-20T14:09:40.625Z,93.71
2022-10-20T14:10:39.596Z,92.41
2022-10-20T14:11:38.507Z,91.97
2022-10-20T14:12:38.765Z,91.93
2022-10-20T14:13:38.498Z,90.82
2022-10-20T14:14:38.523Z,89.95
2022-10-20T14:15:38.474Z,90.30
2022-10-20T14:16:38.450Z,91.01
2022-10-20T14:17:40.674Z,90.91
2022-10-20T14:18:38.440Z,91.05
2022-10-20T14:19:39.088Z,92.22
2022-10-20T14:20:38.397Z,90.97
2022-10-20T14:21:38.399Z,90.20
2022-10-20T14:22:38.808Z,91.05
2022-10-20T14:23:38.422Z,91.05
2022-10-20T14:24:38.366Z,90.75
2022-10-20T14:25:38.343Z,89.45
2022-10-20T14:26:38.312Z,88.66
2022-10-20T14:27:38.702Z,88.82
2022-10-20T14:28:38.282Z,87.57
2022-10-20T14:29:38.284Z,86.43
2022-10-20T14:30:41.143Z,84.71
2022-10-20T14:31:38.266Z,83.34
2022-10-20T14:32:38.238Z,84.19
2022-10-20T14:33:38.236Z,85.20
2022-10-20T14:34:38.233Z,84.80
2022-10-20T14:35:38.202Z,85.05
2022-10-20T14:36:41.059Z,83.84
2022-10-20T14:37:39.480Z,85.03
2022-10-20T14:38:38.149Z,85.78
2022-10-20T14:39:38.133Z,87.03
2022-10-20T14:40:38.163Z,88.39
2022-10-20T14:41:38.118Z,89.43
2022-10-20T14:42:38.134Z,90.14
2022-10-20T14:43:38.071Z,90.45
2022-10-20T14:44:38.079Z,90.79
2022-10-20T14:45:38.049Z,90.99
2022-10-20T14:46:38.050Z,90.79
2022-10-20T14:47:38.244Z,90.63
2022-10-20T14:48:38.035Z,91.24
2022-10-20T14:49:37.993Z,91.70
2022-10-20T14:50:37.992Z,91.34
2022-10-20T14:51:37.979Z,91.24
2022-10-20T14:52:38.417Z,91.64
2022-10-20T14:53:37.960Z,91.58
2022-10-20T14:54:38.093Z,91.78
2022-10-20T14:55:37.927Z,91.99
2022-10-20T14:56:37.908Z,91.89
2022-10-20T14:57:38.226Z,91.99
2022-10-20T14:58:37.887Z,92.19
2022-10-20T14:59:37.883Z,91.69
2022-10-20T15:00:37.867Z,91.99
2022-10-20T15:01:37.907Z,92.19
2022-10-20T15:02:37.807Z,91.99
2022-10-20T15:03:37.837Z,91.99
2022-10-20T15:04:37.835Z,91.89
2022-10-20T15:05:37.794Z,91.99
2022-10-20T15:06:37.779Z,91.99
2022-10-20T15:07:37.994Z,92.19
2022-10-20T15:08:37.801Z,91.78
2022-10-20T15:09:37.731Z,92.19
2022-10-20T15:10:37.735Z,91.78
2022-10-20T15:11:37.681Z,91.89
2022-10-20T15:12:37.989Z,92.40
2022-10-20T15:13:37.712Z,92.29
2022-10-20T15:14:37.661Z,92.19
2022-10-20T15:15:37.642Z,91.99
2022-10-20T15:16:37.640Z,92.29
2022-10-20T15:17:37.961Z,92.69
2022-10-20T15:18:39.327Z,92.80
2022-10-20T15:19:37.633Z,92.29
2022-10-20T15:20:37.613Z,92.40
2022-10-20T15:21:37.615Z,92.40
2022-10-20T15:22:37.732Z,92.69
2022-10-20T15:23:37.545Z,92.90
2022-10-20T15:24:37.545Z,92.90
2022-10-20T15:25:37.529Z,92.90
2022-10-20T15:26:37.502Z,92.90
2022-10-20T15:27:37.536Z,93.04
2022-10-20T15:28:37.466Z,92.74
2022-10-20T15:29:37.477Z,92.80
2022-10-20T15:30:37.436Z,93.00
2022-10-20T15:32:37.587Z,93.24
2022-10-20T15:33:37.432Z,93.04
2022-10-20T15:34:37.387Z,92.94
2022-10-20T15:35:37.388Z,92.80
2022-10-20T15:36:41.868Z,92.90
2022-10-20T15:37:38.347Z,92.90
2022-10-20T15:38:37.400Z,93.20
2022-10-20T15:39:37.401Z,92.94
2022-10-20T15:40:37.304Z,93.04
2022-10-20T15:41:37.331Z,93.24
2022-10-20T15:42:37.519Z,93.55
2022-10-20T15:43:37.302Z,93.35
2022-10-20T15:44:37.297Z,93.24
2022-10-20T15:45:37.245Z,93.04
2022-10-20T15:46:37.209Z,93.24
2022-10-20T15:47:37.214Z,92.84
2022-10-20T15:48:37.197Z,92.80
2022-10-20T15:49:37.197Z,93.04
2022-10-20T15:50:37.189Z,93.15
2022-10-20T15:51:37.153Z,93.44
2022-10-20T15:52:37.426Z,93.44
2022-10-20T15:53:37.170Z,93.55
2022-10-20T15:54:37.143Z,93.44
2022-10-20T15:55:37.118Z,93.65
2022-10-20T15:56:37.108Z,93.55
2022-10-20T15:57:37.298Z,93.65
2022-10-20T15:58:39.732Z,93.75
2022-10-20T15:59:37.047Z,93.35
2022-10-20T16:00:37.092Z,93.55
2022-10-20T16:01:37.051Z,93.35
2022-10-20T16:02:37.238Z,93.24
2022-10-20T16:03:36.976Z,92.94
2022-10-20T16:04:37.006Z,93.15
2022-10-20T16:05:37.000Z,93.24
2022-10-20T16:06:36.942Z,93.35
2022-10-20T16:07:44.482Z,93.35
2022-10-20T16:08:37.006Z,93.55
2022-10-20T16:09:36.919Z,93.70
2022-10-20T16:10:36.917Z,93.79
2022-10-20T16:11:36.938Z,93.90
2022-10-20T16:12:37.076Z,93.90
2022-10-20T16:13:36.879Z,94.00
2022-10-20T16:14:36.839Z,94.30
2022-10-20T16:15:36.837Z,94.40
2022-10-20T16:16:36.902Z,94.65
2022-10-20T16:17:36.863Z,94.45
2022-10-20T16:18:36.788Z,94.35
2022-10-20T16:19:36.798Z,94.14
2022-10-20T16:20:36.792Z,94.14
2022-10-20T16:21:36.898Z,94.04
2022-10-20T16:22:37.084Z,94.24
2022-10-20T16:23:40.601Z,94.24
2022-10-20T16:24:37.722Z,94.04
2022-10-20T16:25:36.732Z,94.04
2022-10-20T16:26:36.692Z,94.14
2022-10-20T16:27:36.917Z,94.14
2022-10-20T16:28:36.655Z,94.35
2022-10-20T16:29:36.664Z,94.45
2022-10-20T16:30:36.853Z,94.45
2022-10-20T16:31:36.645Z,94.70
2022-10-20T16:32:37.006Z,94.70
2022-10-20T16:33:36.601Z,94.90
2022-10-20T16:34:36.577Z,95.00
2022-10-20T16:35:36.564Z,95.20
2022-10-20T16:36:36.566Z,95.30
2022-10-20T16:37:36.953Z,95.20